Time;durP1;ratioP1;P1;durP2;ratioP2;P2;SDS_P1;SDS_P2;PMS_P1;PMS_P2;Temp;Humidity;BMP_temperature;BMP_pressure;BME280_temperature;BME280_humidity;BME280_pressure;Samples;Min_cycle;Max_cycle;Signal;HPM_P1;HPM_P2
2023/09/05 01:02:59;;;;;;;0.53;0.50;;;;;;;15.36;100.00;100695.53;5301626;23;20061;-89
2023/09/05 01:05:27;;;;;;;1.70;0.60;;;;;;;15.20;100.00;100690.13;4959786;28;20134;-89
2023/09/05 01:08:04;;;;;;;0.38;0.38;;;;;;;15.19;100.00;100699.72;4941084;28;20141;-89
2023/09/05 01:10:46;;;;;;;0.60;0.55;;;;;;;15.16;100.00;100697.84;4936591;28;20053;-89
2023/09/05 01:13:11;;;;;;;0.10;0.10;;;;;;;15.14;100.00;100697.50;4965750;28;20055;-90
2023/09/05 01:15:37;;;;;;;0.43;0.43;;;;;;;15.02;100.00;100689.94;4966202;28;20035;-89
2023/09/05 01:18:03;;;;;;;0.65;0.65;;;;;;;14.97;100.00;100684.94;4962137;28;20050;-89
2023/09/05 01:21:35;;;;;;;2.25;0.73;;;;;;;14.93;100.00;100696.22;4963837;28;20521;-90
2023/09/05 01:24:10;;;;;;;0.75;0.63;;;;;;;14.91;100.00;100691.09;4954573;28;20038;-89
2023/09/05 01:26:36;;;;;;;1.05;0.45;;;;;;;14.81;100.00;100681.06;4968220;28;20042;-89
2023/09/05 01:29:02;;;;;;;0.70;0.70;;;;;;;14.80;100.00;100687.88;4971750;28;20038;-89
2023/09/05 01:31:28;;;;;;;0.47;0.47;;;;;;;14.74;100.00;100686.91;4935014;28;20049;-89
2023/09/05 01:33:53;;;;;;;0.20;0.20;;;;;;;14.67;100.00;100689.94;4955426;28;20050;-89
2023/09/05 01:36:20;;;;;;;0.52;0.45;;;;;;;14.59;100.00;100694.19;4951310;28;20394;-90
2023/09/05 01:38:45;;;;;;;1.55;1.25;;;;;;;14.58;100.00;100684.25;4983635;28;20038;-89
2023/09/05 01:41:11;;;;;;;0.60;0.60;;;;;;;14.57;100.00;100681.88;4949930;28;20046;-88
2023/09/05 01:43:37;;;;;;;1.15;0.90;;;;;;;14.54;100.00;100682.78;4958033;28;20035;-90
2023/09/05 01:46:03;;;;;;;0.80;0.57;;;;;;;14.44;100.00;100679.09;4968730;28;20038;-89
2023/09/05 01:48:28;;;;;;;2.03;0.80;;;;;;;14.42;100.00;100676.00;4935902;28;20078;-89
2023/09/05 01:50:54;;;;;;;0.10;0.10;;;;;;;14.47;100.00;100689.41;4956150;28;20063;-89
2023/09/05 01:53:19;;;;;;;1.02;0.50;;;;;;;14.47;100.00;100689.41;4954586;28;20073;-89
2023/09/05 01:55:45;;;;;;;0.03;0.03;;;;;;;14.44;100.00;100687.47;4980514;28;20027;-89
2023/09/05 01:58:11;;;;;;;0.40;0.40;;;;;;;14.45;100.00;100692.63;4955506;28;20046;-89
2023/09/05 02:00:37;;;;;;;1.23;1.13;;;;;;;14.42;100.00;100692.75;4952305;28;20042;-90
2023/09/05 02:03:02;;;;;;;0.20;0.20;;;;;;;14.39;100.00;100688.06;4959589;28;20430;-89
2023/09/05 02:05:28;;;;;;;0.30;0.30;;;;;;;14.38;100.00;100692.06;4955524;28;20257;-89
2023/09/05 02:07:53;;;;;;;0.47;0.28;;;;;;;14.27;100.00;100683.25;4920294;28;20097;-89
2023/09/05 02:10:19;;;;;;;0.40;0.30;;;;;;;14.23;100.00;100679.78;4935293;28;20043;-89
2023/09/05 02:12:45;;;;;;;0.03;0.03;;;;;;;14.14;100.00;100682.44;4955502;28;20039;-89
2023/09/05 02:15:10;;;;;;;0.38;0.38;;;;;;;14.17;100.00;100685.13;4951465;28;20039;-90
2023/09/05 02:17:36;;;;;;;0.50;0.45;;;;;;;14.15;100.00;100684.00;4938221;28;20047;-89
2023/09/05 02:20:03;;;;;;;1.33;1.17;;;;;;;14.15;100.00;100672.84;4918767;28;20495;-89
2023/09/05 02:22:29;;;;;;;0.50;0.50;;;;;;;14.14;100.00;100676.88;4952597;28;20062;-89
2023/09/05 02:24:54;;;;;;;0.50;0.50;;;;;;;14.10;100.00;100665.03;4936276;28;20043;-89
2023/09/05 02:27:20;;;;;;;1.00;0.52;;;;;;;14.06;100.00;100681.09;4934328;28;20415;-89
2023/09/05 02:29:56;;;;;;;0.65;0.65;;;;;;;13.97;100.00;100660.22;4966098;28;20055;-89
2023/09/05 02:32:24;;;;;;;0.93;0.93;;;;;;;13.99;100.00;100660.56;4916955;28;20406;-89
2023/09/05 02:34:51;;;;;;;0.73;0.57;;;;;;;14.01;100.00;100669.28;4983615;28;20407;-89
2023/09/05 02:37:17;;;;;;;0.45;0.45;;;;;;;13.91;100.00;100664.78;4920201;28;20046;-89
2023/09/05 02:39:42;;;;;;;0.52;0.52;;;;;;;13.92;100.00;100663.56;4967485;28;20038;-89
2023/09/05 02:42:08;;;;;;;3.47;0.93;;;;;;;13.87;100.00;100669.69;4962462;28;20496;-89
2023/09/05 02:44:33;;;;;;;1.23;1.13;;;;;;;13.89;100.00;100661.66;4941470;28;20521;-89
2023/09/05 02:49:50;;;;;;;0.20;0.20;;;;;;;13.66;100.00;100650.03;5018532;28;20056;-92
2023/09/05 02:52:17;;;;;;;0.45;0.45;;;;;;;13.53;100.00;100638.88;4992186;28;20045;-92
2023/09/05 02:54:43;;;;;;;1.17;1.08;;;;;;;13.66;100.00;100659.19;4985311;28;20513;-93
2023/09/05 02:57:08;;;;;;;0.90;0.65;;;;;;;13.71;100.00;100669.78;4981542;28;20045;-93
2023/09/05 02:59:34;;;;;;;0.32;0.32;;;;;;;13.50;100.00;100634.19;4970892;28;20061;-92
2023/09/05 03:02:00;;;;;;;0.65;0.65;;;;;;;13.51;100.00;100632.94;4985585;28;20042;-93
2023/09/05 03:04:32;;;;;;;0.35;0.35;;;;;;;13.72;100.00;100667.78;4967946;28;20042;-92
2023/09/05 03:07:02;;;;;;;0.82;0.68;;;;;;;13.65;100.00;100674.34;4979699;28;20426;-92
2023/09/05 03:09:28;;;;;;;0.68;0.68;;;;;;;13.46;100.00;100639.88;4960178;28;20133;-92
2023/09/05 03:11:54;;;;;;;0.75;0.35;;;;;;;13.47;100.00;100657.34;4995733;28;20041;-93
2023/09/05 03:14:20;;;;;;;0.32;0.32;;;;;;;13.26;100.00;100641.25;4983604;28;20371;-93
2023/09/05 03:16:46;;;;;;;0.90;0.63;;;;;;;13.35;100.00;100656.09;4965808;28;20562;-93
2023/09/05 03:19:12;;;;;;;0.22;0.22;;;;;;;13.50;100.00;100689.91;4985986;23;20058;-88
2023/09/05 03:21:38;;;;;;;0.68;0.68;;;;;;;13.39;100.00;100678.28;4970117;28;20510;-89
2023/09/05 03:24:04;;;;;;;2.33;1.52;;;;;;;13.39;100.00;100689.41;4970362;28;20085;-89
2023/09/05 03:26:30;;;;;;;0.88;0.65;;;;;;;13.34;100.00;100684.41;4955935;28;20057;-89
2023/09/05 03:28:56;;;;;;;0.77;0.73;;;;;;;13.32;100.00;100684.03;4951044;28;20035;-89
2023/09/05 03:31:26;;;;;;;0.57;0.57;;;;;;;13.39;100.00;100692.19;4963838;28;20775;-90
2023/09/05 03:33:51;;;;;;;1.63;1.20;;;;;;;13.32;100.00;100693.19;4967272;28;20058;-89
2023/09/05 03:36:17;;;;;;;0.63;0.43;;;;;;;13.33;100.00;100686.41;4961284;28;20043;-90
2023/09/05 03:38:42;;;;;;;1.20;1.17;;;;;;;13.31;100.00;100690.84;4963726;28;20064;-90
2023/09/05 03:41:08;;;;;;;0.57;0.52;;;;;;;13.31;100.00;100704.75;4952204;28;20564;-89
2023/09/05 03:43:34;;;;;;;0.70;0.65;;;;;;;13.27;100.00;100704.88;4982473;28;20048;-89
2023/09/05 03:46:00;;;;;;;0.75;0.70;;;;;;;13.19;100.00;100697.13;4969856;28;20074;-89
2023/09/05 03:48:26;;;;;;;0.85;0.80;;;;;;;13.21;100.00;100712.22;4961198;28;20508;-90
2023/09/05 03:50:51;;;;;;;1.05;0.95;;;;;;;13.17;100.00;100705.16;4984551;28;20046;-89
2023/09/05 03:53:17;;;;;;;0.05;0.05;;;;;;;13.07;100.00;100696.63;4956553;28;20054;-89
2023/09/05 03:55:44;;;;;;;0.52;0.45;;;;;;;13.02;100.00;100694.34;4985274;28;20043;-89
2023/09/05 03:58:11;;;;;;;1.08;0.55;;;;;;;13.10;100.00;100708.94;4956982;28;20042;-89
2023/09/05 04:00:36;;;;;;;1.15;0.85;;;;;;;13.09;100.00;100704.53;4954107;28;20047;-89
2023/09/05 04:03:04;;;;;;;0.85;0.70;;;;;;;13.08;100.00;100714.91;4950118;28;20128;-89
2023/09/05 04:05:33;;;;;;;0.63;0.63;;;;;;;13.11;100.00;100718.03;4972090;28;20569;-89
2023/09/05 04:07:59;;;;;;;1.38;0.77;;;;;;;13.12;100.00;100714.84;4987560;28;20421;-89
2023/09/05 04:10:24;;;;;;;1.55;1.17;;;;;;;13.06;100.00;100706.19;4980774;28;20513;-89
2023/09/05 04:12:50;;;;;;;0.63;0.63;;;;;;;13.01;100.00;100715.09;4951665;28;20070;-89
2023/09/05 04:15:20;;;;;;;0.75;0.35;;;;;;;13.03;100.00;100723.00;4971736;28;20050;-89
2023/09/05 04:17:47;;;;;;;0.77;0.77;;;;;;;13.01;100.00;100715.09;4987520;28;20458;-89
2023/09/05 04:20:13;;;;;;;0.65;0.52;;;;;;;13.02;100.00;100722.19;4954828;28;20082;-89
2023/09/05 04:22:39;;;;;;;0.28;0.28;;;;;;;13.00;100.00;100719.09;4987745;28;20038;-89
2023/09/05 04:25:05;;;;;;;0.65;0.65;;;;;;;13.04;100.00;100719.78;4983105;28;20031;-89
2023/09/05 04:27:31;;;;;;;1.55;0.85;;;;;;;13.03;100.00;100706.28;4974873;28;20045;-89
2023/09/05 04:29:57;;;;;;;0.20;0.20;;;;;;;13.04;100.00;100717.00;4967002;28;20042;-89
2023/09/05 04:32:30;;;;;;;3.78;1.42;;;;;;;13.07;100.00;100730.03;4987229;28;20034;-89
2023/09/05 04:34:57;;;;;;;0.45;0.43;;;;;;;13.09;100.00;100735.97;4975193;28;20256;-89
2023/09/05 04:37:23;;;;;;;0.93;0.93;;;;;;;12.95;100.00;100719.59;4972349;28;20121;-90
2023/09/05 04:39:51;;;;;;;0.43;0.43;;;;;;;13.00;100.00;100724.66;4953875;28;21171;-90
2023/09/05 04:42:17;;;;;;;0.57;0.57;;;;;;;13.05;100.00;100735.28;4963615;28;20109;-90
2023/09/05 04:44:43;;;;;;;0.80;0.80;;;;;;;13.05;100.00;100726.91;4967671;28;20034;-91
2023/09/05 04:47:22;;;;;;;0.22;0.22;;;;;;;13.06;100.00;100725.69;4983695;28;20046;-89
2023/09/05 04:49:51;;;;;;;1.27;1.17;;;;;;;13.07;100.00;100730.03;4984784;28;20109;-90
2023/09/05 04:52:18;;;;;;;1.13;1.02;;;;;;;13.06;100.00;100714.53;4967531;28;20042;-91
2023/09/05 04:54:45;;;;;;;0.60;0.60;;;;;;;13.03;100.00;100711.84;4982375;28;20034;-90
2023/09/05 04:57:12;;;;;;;1.17;0.95;;;;;;;13.19;100.00;100733.34;4981621;28;20034;-88
2023/09/05 04:59:37;;;;;;;2.92;1.63;;;;;;;13.15;100.00;100736.22;4970716;28;20046;-89
2023/09/05 05:02:04;;;;;;;0.65;0.63;;;;;;;13.19;100.00;100741.72;4979236;28;20546;-89
2023/09/05 05:04:30;;;;;;;0.85;0.63;;;;;;;13.25;100.00;100734.41;4969884;28;20034;-88
2023/09/05 05:06:56;;;;;;;2.15;1.55;;;;;;;13.34;100.00;100742.91;4961629;28;20038;-88
2023/09/05 05:09:22;;;;;;;0.38;0.38;;;;;;;13.37;100.00;100742.03;4975725;28;20042;-89
2023/09/05 05:11:47;;;;;;;0.68;0.68;;;;;;;13.42;100.00;100733.94;4965330;28;20061;-88
2023/09/05 05:14:13;;;;;;;0.28;0.28;;;;;;;13.49;100.00;100744.09;4949470;28;20151;-89
2023/09/05 05:16:38;;;;;;;2.05;1.52;;;;;;;13.58;100.00;100746.25;4949202;28;20570;-88
2023/09/05 05:19:04;;;;;;;0.85;0.85;;;;;;;13.63;100.00;100732.53;4981202;28;20065;-88
2023/09/05 05:21:30;;;;;;;1.33;1.23;;;;;;;13.75;100.00;100737.38;4947771;28;20049;-88
2023/09/05 05:23:55;;;;;;;3.42;1.27;;;;;;;13.88;100.00;100740.97;4978034;28;20043;-89
2023/09/05 05:26:21;;;;;;;0.73;0.73;;;;;;;13.97;100.00;100735.53;4972242;28;20034;-89
2023/09/05 05:28:46;;;;;;;1.65;1.13;;;;;;;14.10;100.00;100737.56;4957563;28;20125;-90
2023/09/05 05:31:13;;;;;;;0.35;0.32;;;;;;;14.27;100.00;100742.63;4963097;28;20048;-90
2023/09/05 05:33:39;;;;;;;0.80;0.80;;;;;;;14.42;100.00;100751.34;4976727;28;20053;-88
2023/09/05 05:36:05;;;;;;;1.55;1.10;;;;;;;14.46;100.00;100747.22;4983605;28;20042;-90
2023/09/05 05:38:30;;;;;;;1.17;0.70;;;;;;;14.60;100.00;100748.00;4987381;28;20050;-90
2023/09/05 05:40:57;;;;;;;0.43;0.43;;;;;;;14.78;100.00;100748.22;4984950;28;20046;-89
2023/09/05 05:43:26;;;;;;;0.68;0.68;;;;;;;14.96;100.00;100742.84;4984683;28;20058;-87
2023/09/05 05:45:52;;;;;;;0.30;0.30;;;;;;;15.09;100.00;100739.97;5002096;28;20050;-89
2023/09/05 05:48:17;;;;;;;0.32;0.32;;;;;;;15.32;100.00;100737.59;4966720;28;20457;-89
2023/09/05 05:50:43;;;;;;;0.52;0.52;;;;;;;15.50;100.00;100745.38;4967536;28;20121;-89
2023/09/05 05:53:09;;;;;;;1.00;0.70;;;;;;;15.66;100.00;100747.19;4948263;28;20100;-90
2023/09/05 05:55:34;;;;;;;1.02;1.02;;;;;;;15.88;100.00;100750.00;4966385;28;20030;-89
2023/09/05 05:58:00;;;;;;;0.85;0.65;;;;;;;15.96;100.00;100728.91;4971312;28;20108;-89
2023/09/05 06:00:27;;;;;;;0.20;0.20;;;;;;;16.05;100.00;100735.34;4968529;28;20049;-89
2023/09/05 06:02:52;;;;;;;0.70;0.70;;;;;;;16.13;100.00;100738.66;4985844;28;20050;-88
2023/09/05 06:05:18;;;;;;;0.30;0.30;;;;;;;16.37;100.00;100750.13;4966697;28;20064;-88
2023/09/05 06:07:44;;;;;;;0.40;0.40;;;;;;;16.47;100.00;100741.28;4968176;28;20063;-88
2023/09/05 06:10:11;;;;;;;0.50;0.47;;;;;;;16.63;100.00;100748.69;4969351;28;20050;-88
2023/09/05 06:12:37;;;;;;;0.40;0.40;;;;;;;16.76;100.00;100733.34;4980178;28;20494;-89
2023/09/05 06:15:02;;;;;;;0.22;0.22;;;;;;;16.97;100.00;100733.69;4981266;28;20641;-89
2023/09/05 06:17:28;;;;;;;0.40;0.40;;;;;;;17.14;100.00;100741.38;4965255;28;20126;-90
2023/09/05 06:19:53;;;;;;;0.90;0.40;;;;;;;17.26;100.00;100750.88;4968300;28;20030;-89
2023/09/05 06:22:19;;;;;;;0.50;0.47;;;;;;;17.24;100.00;100728.13;4950102;28;20046;-90
2023/09/05 06:24:45;;;;;;;0.95;0.95;;;;;;;17.37;100.00;100742.78;4988629;28;20035;-89
2023/09/05 06:27:10;;;;;;;0.93;0.77;;;;;;;17.55;100.00;100745.56;4971186;28;20120;-90
2023/09/05 06:29:36;;;;;;;0.98;0.60;;;;;;;17.74;100.00;100740.00;4983114;28;20034;-89
2023/09/05 06:32:01;;;;;;;0.60;0.60;;;;;;;17.83;100.00;100732.34;4975500;28;20052;-89
2023/09/05 06:34:27;;;;;;;0.65;0.40;;;;;;;18.01;100.00;100748.38;4958143;28;20037;-89
2023/09/05 06:36:53;;;;;;;0.38;0.38;;;;;;;18.27;100.00;100752.38;4962218;28;20046;-88
2023/09/05 06:39:18;;;;;;;0.43;0.43;;;;;;;18.13;100.00;100745.38;4969409;28;20398;-89
2023/09/05 06:41:44;;;;;;;1.38;0.95;;;;;;;18.26;100.00;100753.59;4978904;28;20037;-88
2023/09/05 06:44:10;;;;;;;1.42;0.85;;;;;;;18.33;100.00;100746.88;4955816;28;20129;-89
2023/09/05 06:46:36;;;;;;;1.48;1.38;;;;;;;18.45;100.00;100755.09;4960488;28;20038;-89
2023/09/05 06:49:02;;;;;;;1.08;0.60;;;;;;;18.60;100.00;100732.75;4991262;28;20026;-89
2023/09/05 06:51:30;;;;;;;0.70;0.45;;;;;;;18.75;100.00;100760.94;4982405;28;20042;-89
2023/09/05 06:53:56;;;;;;;1.85;1.23;;;;;;;18.76;100.00;100763.28;4979406;28;20041;-90
2023/09/05 06:56:22;;;;;;;0.38;0.30;;;;;;;18.83;100.00;100750.91;4974748;28;20188;-90
2023/09/05 06:58:47;;;;;;;1.83;1.25;;;;;;;18.97;100.00;100759.41;4987261;28;20577;-90
2023/09/05 07:01:13;;;;;;;1.00;0.85;;;;;;;19.01;100.00;100762.03;4958921;28;20046;-91
2023/09/05 07:03:38;;;;;;;0.93;0.93;;;;;;;19.06;100.00;100767.78;4967215;28;20425;-90
2023/09/05 07:06:04;;;;;;;0.68;0.68;;;;;;;19.20;100.00;100757.88;4975867;28;20062;-89
2023/09/05 07:08:31;;;;;;;0.47;0.40;;;;;;;19.27;100.00;100751.88;4959849;28;20035;-90
2023/09/05 07:10:57;;;;;;;0.70;0.55;;;;;;;19.54;100.00;100762.16;4974234;28;20046;-90
2023/09/05 07:13:22;;;;;;;1.83;1.15;;;;;;;19.83;99.68;100761.44;4975654;28;20409;-90
2023/09/05 07:15:48;;;;;;;0.63;0.47;;;;;;;19.92;94.77;100766.97;4977517;28;20052;-90
2023/09/05 07:18:13;;;;;;;2.03;1.00;;;;;;;19.95;94.98;100763.97;4984880;28;20498;-90
2023/09/05 07:20:40;;;;;;;0.45;0.45;;;;;;;19.88;95.39;100760.75;4991026;28;20478;-90
2023/09/05 07:23:05;;;;;;;0.88;0.77;;;;;;;19.93;97.04;100768.53;4978863;28;20042;-90
2023/09/05 07:25:31;;;;;;;0.55;0.55;;;;;;;20.22;93.43;100768.53;4960245;28;20030;-89
2023/09/05 07:27:57;;;;;;;0.70;0.65;;;;;;;20.37;92.09;100775.00;4970450;28;20446;-89
2023/09/05 07:30:23;;;;;;;0.73;0.73;;;;;;;20.39;92.58;100772.44;4962443;28;20136;-89
2023/09/05 07:32:49;;;;;;;1.27;0.75;;;;;;;20.44;92.16;100777.41;4974353;28;20121;-90
2023/09/05 07:35:15;;;;;;;0.38;0.38;;;;;;;20.59;88.58;100776.59;4954813;28;20431;-90
2023/09/05 07:37:41;;;;;;;0.55;0.55;;;;;;;20.67;90.06;100789.03;4962643;28;20056;-90
2023/09/05 07:40:08;;;;;;;0.63;0.63;;;;;;;20.80;88.38;100775.41;4976344;28;20046;-90
2023/09/05 07:42:34;;;;;;;0.63;0.63;;;;;;;20.77;87.38;100782.81;4990364;28;20050;-91
2023/09/05 07:45:02;;;;;;;0.80;0.80;;;;;;;20.99;88.31;100790.78;4966689;28;20030;-91
2023/09/05 07:47:27;;;;;;;0.95;0.65;;;;;;;21.19;85.24;100787.28;4991650;28;20502;-91
2023/09/05 07:49:53;;;;;;;1.23;1.10;;;;;;;21.35;83.79;100793.13;4956798;28;20051;-90
2023/09/05 07:52:19;;;;;;;0.38;0.38;;;;;;;21.47;82.25;100785.59;4973758;28;20519;-90
2023/09/05 07:54:44;;;;;;;1.30;0.40;;;;;;;21.63;78.86;100785.03;4949423;28;20043;-90
2023/09/05 07:57:10;;;;;;;0.40;0.40;;;;;;;21.57;81.57;100778.50;4976157;28;20034;-90
2023/09/05 07:59:35;;;;;;;2.28;1.20;;;;;;;21.53;78.99;100777.19;4971727;28;20449;-90
2023/09/05 08:02:01;;;;;;;0.63;0.63;;;;;;;21.60;81.80;100782.38;4991347;28;20438;-91
2023/09/05 08:04:29;;;;;;;2.25;1.20;;;;;;;21.80;81.72;100785.19;4978014;28;20402;-91
2023/09/05 08:06:54;;;;;;;0.77;0.50;;;;;;;22.03;79.40;100781.38;4964055;28;20042;-90
2023/09/05 08:09:20;;;;;;;1.48;1.33;;;;;;;22.30;73.91;100771.59;4992771;28;20045;-90
2023/09/05 08:11:46;;;;;;;0.20;0.20;;;;;;;22.55;73.91;100778.47;4966713;28;20486;-91
2023/09/05 08:14:11;;;;;;;0.20;0.20;;;;;;;22.63;73.76;100771.88;4965660;28;20042;-91
2023/09/05 08:16:38;;;;;;;1.05;0.77;;;;;;;22.36;74.95;100780.13;4968638;28;20081;-91
2023/09/05 08:19:04;;;;;;;0.35;0.35;;;;;;;22.20;76.73;100773.81;4973729;28;20066;-91
2023/09/05 08:21:30;;;;;;;0.60;0.57;;;;;;;22.45;74.72;100771.44;4973507;28;20033;-91
2023/09/05 08:23:55;;;;;;;1.35;0.77;;;;;;;22.37;72.30;100770.34;4974582;28;20516;-91
2023/09/05 08:26:21;;;;;;;0.40;0.40;;;;;;;22.67;71.68;100769.59;4954125;28;20042;-91
2023/09/05 08:28:46;;;;;;;1.27;1.20;;;;;;;22.89;72.32;100780.28;4975701;28;20100;-91
2023/09/05 08:31:13;;;;;;;0.38;0.38;;;;;;;23.11;68.63;100780.44;4954328;28;20309;-91
2023/09/05 08:33:39;;;;;;;0.38;0.38;;;;;;;23.38;66.14;100766.91;4959534;28;20049;-90
2023/09/05 08:36:05;;;;;;;1.73;1.20;;;;;;;23.51;67.45;100781.41;4970331;28;20482;-91
2023/09/05 08:38:31;;;;;;;1.27;0.77;;;;;;;23.65;63.87;100777.63;4981112;28;20065;-91
2023/09/05 08:41:01;;;;;;;0.70;0.47;;;;;;;23.51;63.33;100787.06;4974612;28;20406;-91
2023/09/05 08:43:27;;;;;;;0.75;0.43;;;;;;;23.42;64.00;100775.94;4957909;28;20444;-91
2023/09/05 08:45:53;;;;;;;1.30;1.20;;;;;;;23.60;64.86;100769.88;4958104;28;20064;-91
2023/09/05 08:48:19;;;;;;;2.25;1.60;;;;;;;23.62;66.23;100764.44;4958233;28;20169;-91
2023/09/05 08:50:45;;;;;;;0.98;0.63;;;;;;;23.79;64.83;100768.13;4954658;28;20133;-91
2023/09/05 08:53:11;;;;;;;1.55;0.70;;;;;;;23.84;62.66;100769.41;4949427;28;20034;-91
2023/09/05 08:55:38;;;;;;;0.70;0.70;;;;;;;24.08;62.89;100764.06;4963613;28;20042;-91
2023/09/05 08:58:04;;;;;;;0.93;0.88;;;;;;;24.27;59.19;100759.44;4957597;28;20034;-91
2023/09/05 09:00:30;;;;;;;0.82;0.73;;;;;;;24.44;57.75;100770.78;4993451;28;20088;-91
2023/09/05 09:02:56;;;;;;;1.60;0.93;;;;;;;24.39;55.70;100763.06;4977003;28;20042;-90
2023/09/05 09:05:21;;;;;;;2.90;1.45;;;;;;;24.46;56.22;100762.56;4957911;28;20510;-91
2023/09/05 09:07:47;;;;;;;1.45;1.00;;;;;;;24.50;54.98;100751.72;4965601;28;20047;-91
2023/09/05 09:10:17;;;;;;;0.75;0.57;;;;;;;24.58;55.20;100744.25;4975869;28;20050;-90
2023/09/05 09:12:43;;;;;;;0.43;0.43;;;;;;;24.68;54.41;100748.34;4950258;28;20034;-91
2023/09/05 09:15:13;;;;;;;0.88;0.75;;;;;;;25.03;52.79;100757.06;4956142;28;20514;-92
2023/09/05 09:17:48;;;;;;;0.45;0.45;;;;;;;25.12;53.11;100746.72;4957908;28;20074;-92
2023/09/05 09:20:14;;;;;;;1.02;0.73;;;;;;;25.15;52.52;100754.22;4971786;28;20561;-91
2023/09/05 09:22:41;;;;;;;0.52;0.47;;;;;;;25.34;53.05;100738.13;4986007;28;20104;-91
2023/09/05 09:25:22;;;;;;;0.50;0.50;;;;;;;25.34;50.81;100726.75;4988941;28;20411;-91
2023/09/05 09:27:54;;;;;;;0.40;0.40;;;;;;;25.36;51.89;100736.28;4959712;28;20148;-91
2023/09/05 09:30:29;;;;;;;0.88;0.88;;;;;;;25.69;51.62;100731.75;4988586;28;20046;-90
2023/09/05 09:32:55;;;;;;;0.40;0.40;;;;;;;25.85;50.92;100725.97;4988620;28;20076;-89
2023/09/05 09:35:22;;;;;;;0.38;0.38;;;;;;;25.93;49.42;100732.66;4975168;28;20041;-91
2023/09/05 09:37:49;;;;;;;0.43;0.43;;;;;;;25.85;48.74;100714.59;4976580;28;20037;-90
2023/09/05 09:40:18;;;;;;;1.02;0.95;;;;;;;25.89;48.56;100725.69;4956395;28;20525;-90
2023/09/05 09:42:48;;;;;;;1.05;0.98;;;;;;;26.23;49.60;100732.72;4957480;28;20073;-91
2023/09/05 09:45:16;;;;;;;0.40;0.40;;;;;;;26.19;48.13;100714.38;4967988;28;20064;-91
2023/09/05 09:47:51;;;;;;;0.45;0.40;;;;;;;25.81;48.98;100702.75;4976527;28;20046;-91
2023/09/05 09:50:19;;;;;;;0.40;0.40;;;;;;;25.57;51.22;100728.22;4990217;28;20050;-91
2023/09/05 09:52:48;;;;;;;0.75;0.75;;;;;;;25.39;50.60;100720.28;4960625;28;20034;-91
2023/09/05 09:55:14;;;;;;;0.50;0.50;;;;;;;25.33;51.42;100713.84;4974647;28;20069;-91
2023/09/05 09:57:46;;;;;;;0.98;0.63;;;;;;;25.62;50.52;100718.91;4956783;28;20120;-90
2023/09/05 10:00:15;;;;;;;1.42;1.20;;;;;;;25.74;50.16;100706.16;4957945;28;20411;-91
2023/09/05 10:02:46;;;;;;;1.55;0.88;;;;;;;25.96;49.45;100700.31;4976429;28;20553;-91
2023/09/05 10:05:12;;;;;;;0.63;0.63;;;;;;;26.26;47.63;100688.22;4973523;28;20060;-91
2023/09/05 10:07:38;;;;;;;1.05;1.05;;;;;;;26.29;47.16;100705.00;4976233;28;20083;-91
2023/09/05 10:10:09;;;;;;;1.05;0.98;;;;;;;26.46;46.99;100704.84;4975120;28;20050;-90
2023/09/05 10:12:36;;;;;;;0.65;0.60;;;;;;;26.25;47.20;100698.03;4989413;28;20038;-91
2023/09/05 10:15:03;;;;;;;1.20;1.02;;;;;;;26.54;46.80;100694.41;4956001;28;20046;-91
2023/09/05 10:17:30;;;;;;;1.27;0.90;;;;;;;26.83;46.82;100698.50;4947048;28;20040;-91
2023/09/05 10:19:56;;;;;;;1.08;0.85;;;;;;;26.79;44.31;100690.28;4971442;28;20677;-92
2023/09/05 10:22:21;;;;;;;0.50;0.50;;;;;;;26.28;45.98;100682.78;4975567;28;20493;-91
2023/09/05 10:24:47;;;;;;;0.70;0.70;;;;;;;26.30;47.70;100671.63;4974099;28;20043;-92
2023/09/05 10:27:13;;;;;;;0.60;0.40;;;;;;;26.38;47.09;100669.75;4953289;28;20113;-92
2023/09/05 10:29:49;;;;;;;1.45;0.63;;;;;;;26.38;46.24;100676.22;4970516;28;20046;-91
2023/09/05 10:32:20;;;;;;;0.98;0.98;;;;;;;26.41;46.27;100674.38;4999543;28;20433;-91
2023/09/05 10:34:54;;;;;;;1.08;0.93;;;;;;;26.43;46.48;100672.53;4964827;28;20650;-94
2023/09/05 10:37:22;;;;;;;0.32;0.32;;;;;;;26.37;46.89;100671.03;4991350;28;20559;-93
2023/09/05 10:39:49;;;;;;;0.40;0.40;;;;;;;26.22;46.68;100676.34;4956075;28;20396;-93
2023/09/05 10:42:15;;;;;;;0.65;0.65;;;;;;;25.75;48.35;100682.16;4964107;28;20100;-92
2023/09/05 10:44:47;;;;;;;0.57;0.57;;;;;;;25.55;49.38;100688.22;4969435;28;20034;-93
2023/09/05 10:47:26;;;;;;;0.82;0.65;;;;;;;25.48;50.22;100680.19;4968750;28;20236;-93
2023/09/05 10:50:20;;;;;;;1.08;0.98;;;;;;;25.79;48.89;100681.84;4999887;28;20054;-91
2023/09/05 10:52:49;;;;;;;0.60;0.60;;;;;;;25.98;46.60;100672.16;4955155;28;20045;-93
2023/09/05 10:55:29;;;;;;;1.23;0.68;;;;;;;26.32;46.22;100672.66;4974813;28;20048;-93
2023/09/05 10:57:55;;;;;;;1.30;1.20;;;;;;;26.35;47.47;100677.28;5003896;28;20042;-93
2023/09/05 11:00:21;;;;;;;0.17;0.17;;;;;;;26.12;46.63;100663.78;4954746;28;20045;-93
2023/09/05 11:02:47;;;;;;;3.63;0.55;;;;;;;26.52;47.18;100673.50;4976729;28;20042;-93
2023/09/05 11:05:18;;;;;;;0.80;0.63;;;;;;;26.79;45.98;100658.97;4970635;28;20069;-93
2023/09/05 11:07:50;;;;;;;0.68;0.68;;;;;;;27.10;44.55;100659.63;4953657;28;20057;-93
2023/09/05 11:10:29;;;;;;;0.75;0.68;;;;;;;27.21;43.81;100665.97;4965788;28;20048;-92
2023/09/05 11:12:56;;;;;;;0.70;0.52;;;;;;;27.50;44.50;100652.88;4985078;28;20034;-96
2023/09/05 11:15:32;;;;;;;0.68;0.68;;;;;;;27.46;43.74;100666.66;4987409;28;20065;-96
2023/09/05 11:18:05;;;;;;;0.30;0.30;;;;;;;27.35;43.23;100652.56;4991063;28;20137;-96
2023/09/05 11:20:40;;;;;;;0.55;0.50;;;;;;;27.72;43.25;100663.97;4972864;28;20042;-96
2023/09/05 11:23:18;;;;;;;0.68;0.55;;;;;;;27.75;43.17;100657.16;4992401;28;20475;-94
2023/09/05 11:25:49;;;;;;;0.52;0.50;;;;;;;27.87;42.31;100646.34;4979260;28;20050;-94
2023/09/05 11:28:15;;;;;;;1.50;1.15;;;;;;;27.85;41.95;100653.94;4978367;28;20053;-93
2023/09/05 11:30:43;;;;;;;0.68;0.68;;;;;;;28.05;42.33;100650.47;4970468;28;20010;-95
2023/09/05 11:33:14;;;;;;;0.47;0.47;;;;;;;27.86;41.95;100644.06;4970135;28;20050;-94
2023/09/05 11:35:46;;;;;;;3.20;0.80;;;;;;;28.10;42.29;100643.94;4973514;28;20047;-93
2023/09/05 11:38:13;;;;;;;0.68;0.68;;;;;;;28.01;41.57;100632.91;4977086;28;20048;-95
2023/09/05 11:40:40;;;;;;;0.82;0.82;;;;;;;27.80;41.38;100630.66;4957121;28;20483;-95
2023/09/05 11:43:11;;;;;;;0.70;0.63;;;;;;;27.41;42.35;100633.34;4976161;28;20042;-95
2023/09/05 11:45:38;;;;;;;0.30;0.30;;;;;;;27.14;43.32;100629.56;4969423;28;20058;-94
2023/09/05 11:48:05;;;;;;;0.40;0.40;;;;;;;26.99;43.99;100619.94;4962909;28;20042;-95
2023/09/05 11:50:31;;;;;;;1.67;1.15;;;;;;;27.14;43.77;100621.00;4959823;28;20100;-94
2023/09/05 11:52:58;;;;;;;0.70;0.70;;;;;;;27.55;43.66;100609.31;4979407;28;20110;-95
2023/09/05 11:55:25;;;;;;;0.10;0.10;;;;;;;28.03;42.64;100619.66;4978901;28;20037;-93
2023/09/05 11:57:55;;;;;;;0.47;0.47;;;;;;;28.18;40.12;100619.16;4961177;28;20066;-93
2023/09/05 12:00:22;;;;;;;1.10;0.82;;;;;;;28.31;41.17;100621.28;4962269;28;20502;-93
2023/09/05 12:02:48;;;;;;;0.75;0.75;;;;;;;28.32;40.36;100606.44;4975669;28;20042;-92
2023/09/05 12:05:19;;;;;;;2.53;0.73;;;;;;;28.34;41.09;100598.13;4973312;28;20072;-93
2023/09/05 12:07:56;;;;;;;1.90;0.55;;;;;;;28.53;40.31;100603.72;4970384;28;20033;-94
2023/09/05 12:10:24;;;;;;;0.70;0.70;;;;;;;28.57;39.83;100609.84;4988142;28;20399;-93
2023/09/05 12:12:52;;;;;;;0.70;0.68;;;;;;;28.34;40.91;100592.41;4973892;28;20486;-93
2023/09/05 12:15:29;;;;;;;1.42;0.73;;;;;;;28.52;40.29;100602.16;4976704;28;20042;-94
2023/09/05 12:17:56;;;;;;;1.42;0.95;;;;;;;28.51;39.61;100600.66;4974171;28;20041;-93
2023/09/05 12:20:22;;;;;;;1.05;0.95;;;;;;;28.48;39.11;100601.72;4962599;28;20046;-94
2023/09/05 12:22:48;;;;;;;1.60;1.25;;;;;;;28.67;39.03;100603.16;4988313;28;20116;-94
2023/09/05 12:25:15;;;;;;;1.02;0.85;;;;;;;28.47;40.30;100589.53;4971037;28;20600;-96
2023/09/05 12:27:42;;;;;;;1.13;0.93;;;;;;;28.59;41.22;100590.13;4983895;28;20125;-92